createdAt,value
2019-03-21T08:22:01.012Z,9.95
2019-03-21T08:24:32.227Z,10.23
2019-03-21T08:27:04.737Z,10.38
2019-03-21T08:29:37.626Z,10.52
2019-03-21T08:32:08.370Z,10.47
2019-03-21T08:34:38.992Z,10.51
2019-03-21T08:37:09.560Z,10.51
2019-03-21T08:39:39.996Z,10.54
2019-03-21T08:42:10.532Z,10.18
2019-03-21T08:44:41.015Z,10.18
2019-03-21T08:47:11.482Z,10.11
2019-03-21T08:49:42.011Z,10.68
2019-03-21T08:52:12.482Z,11.10
2019-03-21T08:54:42.895Z,10.90
2019-03-21T08:57:13.349Z,11.10
2019-03-21T08:59:43.806Z,11.41
2019-03-21T09:02:14.259Z,11.57
2019-03-21T09:04:45.718Z,11.01
2019-03-21T09:07:16.384Z,11.01
2019-03-21T09:09:47.508Z,11.71
2019-03-21T09:12:18.388Z,11.86
2019-03-21T09:14:49.837Z,11.86
2019-03-21T09:17:22.275Z,11.81
2019-03-21T09:19:54.058Z,11.42
2019-03-21T09:22:27.484Z,11.57
2019-03-21T09:24:58.137Z,11.57
2019-03-21T09:27:31.642Z,12.16
2019-03-21T09:30:02.510Z,11.62
2019-03-21T09:32:33.051Z,11.52
2019-03-21T09:35:03.849Z,11.29
2019-03-21T09:37:34.203Z,11.77
2019-03-21T09:40:07.642Z,12.10
2019-03-21T09:42:38.259Z,11.71
2019-03-21T09:45:09.603Z,11.48
2019-03-21T09:47:44.155Z,11.32
2019-03-21T09:50:36.433Z,12.06
2019-03-21T09:53:16.619Z,12.07
2019-03-21T09:55:49.959Z,12.58
2019-03-21T09:58:25.649Z,12.43
2019-03-21T10:01:01.791Z,12.63
2019-03-21T10:03:33.762Z,12.25
2019-03-21T10:06:04.380Z,12.00
2019-03-21T10:08:36.568Z,12.41
2019-03-21T10:11:07.315Z,12.04
2019-03-21T10:13:39.926Z,12.22
2019-03-21T10:16:10.460Z,12.11
2019-03-21T10:18:41.882Z,11.76
2019-03-21T10:21:14.136Z,12.18
2019-03-21T10:23:46.175Z,12.24
2019-03-21T10:26:19.323Z,10.53
2019-03-21T10:28:53.206Z,10.53
2019-03-21T10:31:30.896Z,11.77
2019-03-21T10:34:10.029Z,11.77
2019-03-21T10:36:42.232Z,11.60
2019-03-21T10:39:14.070Z,11.40
2019-03-21T10:41:45.159Z,11.58
2019-03-21T10:44:15.632Z,11.19
2019-03-21T10:46:47.701Z,11.19
2019-03-21T10:49:21.566Z,10.86
2019-03-21T10:51:55.106Z,11.03
2019-03-21T10:54:26.730Z,11.57
2019-03-21T10:57:01.763Z,11.17
2019-03-21T10:59:37.251Z,11.17
2019-03-21T11:02:07.800Z,12.21
2019-03-21T11:04:38.322Z,13.15
2019-03-21T11:07:07.584Z,13.07
2019-03-21T11:09:39.185Z,13.62
2019-03-21T11:12:09.647Z,14.32
2019-03-21T11:14:40.198Z,14.73
2019-03-21T11:17:10.733Z,14.27
2019-03-21T11:19:41.238Z,14.30
2019-03-21T11:22:12.732Z,13.14
2019-03-21T11:24:43.580Z,13.39
2019-03-21T11:27:15.762Z,13.51
2019-03-21T11:30:15.931Z,12.85
2019-03-21T11:32:49.536Z,12.67
2019-03-21T11:35:22.058Z,12.30
2019-03-21T11:37:52.783Z,11.93
2019-03-21T11:40:23.455Z,11.75
2019-03-21T11:42:54.155Z,11.24
2019-03-21T11:45:24.643Z,10.50
2019-03-21T11:47:55.245Z,11.23
2019-03-21T11:50:29.172Z,11.53
2019-03-21T11:52:59.940Z,11.53
2019-03-21T11:55:30.553Z,11.46
2019-03-21T11:58:02.408Z,11.30
2019-03-21T12:00:42.748Z,11.16
2019-03-21T12:03:08.059Z,12.41
2019-03-21T12:05:40.797Z,14.12
2019-03-21T12:08:11.565Z,13.82
2019-03-21T12:11:26.902Z,13.52
2019-03-21T12:13:59.470Z,14.64
2019-03-21T12:16:29.888Z,16.32
2019-03-21T12:19:00.609Z,16.52
2019-03-21T12:21:32.066Z,16.51
2019-03-21T12:24:04.342Z,15.34
2019-03-21T12:26:35.688Z,17.01
2019-03-21T12:29:07.367Z,17.08
2019-03-21T12:31:38.871Z,16.25
2019-03-21T12:34:09.442Z,15.17
2019-03-21T12:36:40.078Z,14.06
2019-03-21T12:39:10.825Z,13.35
2019-03-21T12:41:41.285Z,12.91
2019-03-21T12:44:13.457Z,12.52
2019-03-21T12:46:44.097Z,12.53
2019-03-21T12:49:16.469Z,13.40
2019-03-21T12:51:48.182Z,12.68
2019-03-21T12:54:20.409Z,13.18
2019-03-21T12:59:25.848Z,11.77
2019-03-21T13:01:56.384Z,11.77
2019-03-21T13:04:27.040Z,11.47
2019-03-21T13:06:58.806Z,11.51
2019-03-21T13:07:13.279Z,12.84
2019-03-21T13:09:30.558Z,11.37
2019-03-21T13:12:03.491Z,11.37
2019-03-21T13:14:35.321Z,11.31
2019-03-21T13:17:05.947Z,11.60
2019-03-21T13:19:36.986Z,11.54
2019-03-21T13:22:07.566Z,11.59
2019-03-21T13:24:39.233Z,11.70
2019-03-21T13:27:09.985Z,11.09
2019-03-21T13:29:40.645Z,10.88
2019-03-21T13:32:11.150Z,11.27
2019-03-21T13:34:46.009Z,11.16
2019-03-21T13:37:18.166Z,10.85
2019-03-21T13:39:50.377Z,11.16
2019-03-21T13:42:22.077Z,10.59
2019-03-21T13:44:54.984Z,10.63
2019-03-21T13:47:26.326Z,10.50
2019-03-21T13:49:57.229Z,10.43
2019-03-21T13:52:29.178Z,10.31
2019-03-21T13:54:59.639Z,10.35
2019-03-21T13:57:30.114Z,10.42
2019-03-21T14:00:00.964Z,10.46
2019-03-21T14:02:31.777Z,10.50
2019-03-21T14:05:02.519Z,10.50
2019-03-21T14:07:33.159Z,10.49
2019-03-21T14:10:07.335Z,10.42
2019-03-21T14:12:38.197Z,10.44
2019-03-21T14:15:16.788Z,10.60
2019-03-21T14:17:47.402Z,10.48
2019-03-21T14:20:20.408Z,10.38
2019-03-21T14:22:50.311Z,10.38
2019-03-21T14:25:21.910Z,10.41
2019-03-21T14:27:52.685Z,10.17
2019-03-21T14:30:23.299Z,10.17
2019-03-21T14:32:55.909Z,10.23
2019-03-21T14:35:26.769Z,10.31
2019-03-21T14:37:57.319Z,10.27
2019-03-21T14:40:27.840Z,10.36
2019-03-21T14:42:58.353Z,10.53
2019-03-21T14:45:28.766Z,10.46
2019-03-21T14:47:59.332Z,10.38
2019-03-21T14:50:29.782Z,10.22
2019-03-21T14:53:00.609Z,10.22
2019-03-21T14:55:31.894Z,10.13
2019-03-21T14:58:02.773Z,9.97
2019-03-21T15:00:33.211Z,10.06
2019-03-21T15:03:04.941Z,9.91
2019-03-21T15:05:35.605Z,9.58
2019-03-21T15:08:06.250Z,9.60
2019-03-21T15:10:38.160Z,9.72
2019-03-21T15:13:08.748Z,9.81
2019-03-21T15:15:39.169Z,9.65
2019-03-21T15:18:09.694Z,9.71
2019-03-21T15:20:40.045Z,9.60
2019-03-21T15:23:13.277Z,9.40
2019-03-21T15:25:44.820Z,9.38
2019-03-21T15:28:16.185Z,9.40
2019-03-21T15:30:46.589Z,9.53
2019-03-21T15:33:17.038Z,9.40
2019-03-21T15:35:47.459Z,9.52
2019-03-21T15:38:17.941Z,9.57
2019-03-21T15:40:48.330Z,9.63
2019-03-21T15:43:18.787Z,9.32
2019-03-21T15:45:49.313Z,9.27
2019-03-21T15:48:21.093Z,9.16
2019-03-21T15:51:03.814Z,9.02
2019-03-21T15:53:26.989Z,9.01
2019-03-21T15:55:57.421Z,8.80
2019-03-21T15:58:27.872Z,8.79
2019-03-21T16:00:58.308Z,8.81
2019-03-21T16:03:29.011Z,8.73
2019-03-21T16:05:59.437Z,8.69
2019-03-21T16:08:29.955Z,8.69
2019-03-21T16:11:00.399Z,8.65
2019-03-21T16:13:31.729Z,8.54
